createdAt,value
2023-02-06T00:00:19.269Z,-6.42
2023-02-06T00:01:23.029Z,-6.24
2023-02-06T00:02:29.545Z,-6.30
2023-02-06T00:03:32.665Z,-6.54
2023-02-06T00:04:35.774Z,-6.52
2023-02-06T00:05:38.917Z,-6.37
2023-02-06T00:06:42.835Z,-6.27
2023-02-06T00:07:45.873Z,-6.36
2023-02-06T00:08:49.687Z,-6.41
2023-02-06T00:09:52.767Z,-6.45
2023-02-06T00:10:55.986Z,-6.49
2023-02-06T00:11:59.144Z,-6.50
2023-02-06T00:13:02.260Z,-6.48
2023-02-06T00:14:05.600Z,-6.55
2023-02-06T00:15:09.219Z,-6.42
2023-02-06T00:16:33.356Z,-6.49
2023-02-06T00:17:37.692Z,-6.69
2023-02-06T00:18:40.948Z,-6.71
2023-02-06T00:19:44.883Z,-6.71
2023-02-06T00:20:47.926Z,-6.60
2023-02-06T00:21:50.924Z,-6.54
2023-02-06T00:22:53.977Z,-6.50
2023-02-06T00:24:00.294Z,-6.55
2023-02-06T00:25:03.874Z,-6.66
2023-02-06T00:26:08.230Z,-6.76
2023-02-06T00:27:11.443Z,-6.79
2023-02-06T00:28:14.708Z,-6.83
2023-02-06T00:29:17.996Z,-6.70
2023-02-06T00:31:28.993Z,-6.77
2023-02-06T00:32:32.061Z,-6.83
2023-02-06T00:33:35.535Z,-6.64
2023-02-06T00:34:38.525Z,-6.60
2023-02-06T00:35:41.688Z,-6.64
2023-02-06T00:36:44.901Z,-6.77
2023-02-06T00:37:48.239Z,-6.70
2023-02-06T00:38:51.341Z,-6.75
2023-02-06T00:39:54.316Z,-6.73
2023-02-06T00:40:57.348Z,-6.76
2023-02-06T00:42:00.408Z,-6.70
2023-02-06T00:43:03.489Z,-6.68
2023-02-06T00:44:06.563Z,-6.77
2023-02-06T00:45:10.531Z,-6.80
2023-02-06T00:46:13.628Z,-6.71
2023-02-06T00:47:16.672Z,-6.89
2023-02-06T00:48:20.048Z,-7.08
2023-02-06T00:49:23.088Z,-7.13
2023-02-06T00:50:26.520Z,-7.06
2023-02-06T00:51:30.213Z,-7.20
2023-02-06T00:52:33.304Z,-7.08
2023-02-06T00:53:36.490Z,-7.07
2023-02-06T00:54:39.601Z,-7.01
2023-02-06T00:55:42.562Z,-7.02
2023-02-06T00:56:46.141Z,-7.06
2023-02-06T00:57:49.328Z,-7.01
2023-02-06T00:58:52.407Z,-7.03
2023-02-06T00:59:55.639Z,-7.07
2023-02-06T01:00:58.836Z,-6.95
2023-02-06T01:02:02.180Z,-6.94
2023-02-06T01:03:05.304Z,-6.89
2023-02-06T01:04:08.385Z,-6.96
2023-02-06T01:05:11.742Z,-6.90
2023-02-06T01:06:14.996Z,-6.88
2023-02-06T01:07:18.130Z,-6.85
2023-02-06T01:08:21.529Z,-6.93
2023-02-06T01:09:24.696Z,-6.83
2023-02-06T01:10:27.920Z,-6.89
2023-02-06T01:11:31.189Z,-7.04
2023-02-06T01:12:36.019Z,-7.09
2023-02-06T01:13:39.354Z,-7.03
2023-02-06T01:14:42.898Z,-6.96
2023-02-06T01:15:46.160Z,-6.91
2023-02-06T01:16:49.685Z,-6.89
2023-02-06T01:17:53.257Z,-6.97
2023-02-06T01:18:56.588Z,-7.06
2023-02-06T01:20:00.210Z,-6.92
2023-02-06T01:21:08.808Z,-7.06
2023-02-06T01:22:11.872Z,-7.12
2023-02-06T01:23:15.123Z,-7.00
2023-02-06T01:24:18.121Z,-6.94
2023-02-06T01:25:21.068Z,-6.79
2023-02-06T01:26:27.386Z,-6.98
2023-02-06T01:27:30.753Z,-6.97
2023-02-06T01:28:40.366Z,-6.89
2023-02-06T01:29:43.581Z,-7.01
2023-02-06T01:30:46.700Z,-7.00
2023-02-06T01:31:49.739Z,-6.90
2023-02-06T01:32:52.781Z,-6.95
2023-02-06T01:33:58.504Z,-6.87
2023-02-06T01:35:01.534Z,-7.00
2023-02-06T01:36:04.643Z,-6.97
2023-02-06T01:37:07.737Z,-7.01
2023-02-06T01:38:10.735Z,-6.82
2023-02-06T01:39:13.823Z,-6.95
2023-02-06T01:40:21.324Z,-7.10
2023-02-06T01:41:24.599Z,-7.19
2023-02-06T01:42:31.054Z,-7.04
2023-02-06T01:43:36.536Z,-7.14
2023-02-06T01:44:40.004Z,-7.07
2023-02-06T01:45:45.731Z,-6.96
2023-02-06T01:46:54.639Z,-6.93
2023-02-06T01:48:02.555Z,-6.80
2023-02-06T01:49:09.341Z,-6.85
2023-02-06T01:50:12.493Z,-6.90
2023-02-06T01:51:23.206Z,-6.89
2023-02-06T01:52:31.139Z,-6.85
2023-02-06T01:53:39.321Z,-6.73
2023-02-06T01:54:46.364Z,-6.67
2023-02-06T01:55:51.989Z,-6.83
2023-02-06T01:57:00.391Z,-6.84
2023-02-06T01:58:05.786Z,-6.77
2023-02-06T01:59:09.301Z,-6.76
2023-02-06T02:00:12.953Z,-6.74
2023-02-06T02:01:16.558Z,-6.84
2023-02-06T02:02:20.271Z,-6.85
2023-02-06T02:03:23.436Z,-7.18
2023-02-06T02:04:28.890Z,-7.15
2023-02-06T02:05:33.969Z,-7.15
2023-02-06T02:06:37.531Z,-6.99
2023-02-06T02:08:04.801Z,-6.94
2023-02-06T02:09:08.764Z,-6.83
2023-02-06T02:10:11.694Z,-6.79
2023-02-06T02:11:24.499Z,-6.70
2023-02-06T02:12:27.616Z,-6.79
2023-02-06T02:13:32.676Z,-6.78
2023-02-06T02:14:37.508Z,-6.76
2023-02-06T02:15:55.013Z,-6.71
2023-02-06T02:17:15.812Z,-6.79
2023-02-06T02:18:43.777Z,-6.66
2023-02-06T02:20:01.774Z,-6.76
2023-02-06T02:21:47.345Z,-6.70
2023-02-06T02:23:44.026Z,-6.64
2023-02-06T02:24:52.670Z,-6.76
2023-02-06T02:26:40.822Z,-6.82
2023-02-06T02:28:05.952Z,-6.87
2023-02-06T02:29:24.159Z,-6.87
2023-02-06T02:30:30.513Z,-6.85
2023-02-06T02:31:42.336Z,-6.93
2023-02-06T02:33:03.286Z,-7.08
2023-02-06T02:34:24.976Z,-7.27
2023-02-06T02:35:30.631Z,-7.04
2023-02-06T02:37:01.998Z,-7.11
2023-02-06T02:38:27.773Z,-7.07
2023-02-06T02:39:42.853Z,-7.10
2023-02-06T02:40:58.259Z,-7.05
2023-02-06T02:42:10.884Z,-7.03
2023-02-06T02:43:42.944Z,-7.02
2023-02-06T02:44:55.158Z,-7.07
2023-02-06T02:46:21.040Z,-7.07
2023-02-06T02:47:31.024Z,-7.11
2023-02-06T02:48:44.146Z,-7.01
2023-02-06T02:49:48.941Z,-7.11
2023-02-06T02:50:54.576Z,-7.07
2023-02-06T02:51:59.129Z,-7.01
2023-02-06T02:53:04.291Z,-6.93
2023-02-06T02:54:08.095Z,-6.88
2023-02-06T02:55:23.336Z,-6.95
2023-02-06T02:56:27.211Z,-6.98
2023-02-06T02:57:32.159Z,-6.98
2023-02-06T02:58:36.139Z,-7.00
2023-02-06T02:59:46.954Z,-7.00
2023-02-06T03:00:57.924Z,-7.04
2023-02-06T03:02:26.817Z,-6.93
2023-02-06T03:03:32.762Z,-6.77
2023-02-06T03:04:46.416Z,-6.95
2023-02-06T03:06:04.235Z,-6.94
2023-02-06T03:07:35.057Z,-6.96
2023-02-06T03:08:56.179Z,-6.93
2023-02-06T03:10:23.587Z,-6.86
2023-02-06T03:11:27.473Z,-6.95
2023-02-06T03:12:55.548Z,-6.87
2023-02-06T03:14:08.059Z,-6.93
2023-02-06T03:15:38.777Z,-6.88
2023-02-06T03:16:52.544Z,-6.90
2023-02-06T03:18:20.459Z,-6.94
2023-02-06T03:19:35.871Z,-7.00
2023-02-06T03:20:44.171Z,-7.04
2023-02-06T03:21:49.161Z,-7.04
2023-02-06T03:22:54.411Z,-7.08
2023-02-06T03:24:02.208Z,-7.17
2023-02-06T03:25:11.042Z,-7.11
2023-02-06T03:26:17.059Z,-6.99
2023-02-06T03:27:23.038Z,-6.88
2023-02-06T03:28:31.703Z,-6.93
2023-02-06T03:29:38.502Z,-7.10
2023-02-06T03:30:44.142Z,-7.14
2023-02-06T03:31:58.082Z,-7.24
2023-02-06T03:33:07.785Z,-7.29
2023-02-06T03:34:22.308Z,-7.22
2023-02-06T03:35:31.060Z,-7.24
2023-02-06T03:36:34.860Z,-7.19
2023-02-06T03:37:39.221Z,-7.15
2023-02-06T03:38:42.619Z,-7.11
2023-02-06T03:39:45.744Z,-7.12
2023-02-06T03:40:50.383Z,-7.05
2023-02-06T03:41:56.616Z,-7.13
2023-02-06T03:43:04.187Z,-6.98
2023-02-06T03:44:11.463Z,-7.11
2023-02-06T03:45:25.664Z,-7.20
2023-02-06T03:46:30.956Z,-7.14
2023-02-06T03:47:37.462Z,-7.18
2023-02-06T03:48:44.780Z,-7.12
2023-02-06T03:49:50.450Z,-7.27
2023-02-06T03:50:57.432Z,-7.22
2023-02-06T03:52:08.027Z,-7.25
2023-02-06T03:53:13.510Z,-7.29
2023-02-06T03:54:21.372Z,-7.21
2023-02-06T03:55:25.058Z,-7.19
2023-02-06T03:56:47.524Z,-7.20
2023-02-06T03:58:06.180Z,-7.20
2023-02-06T03:59:11.343Z,-7.30
2023-02-06T04:00:14.803Z,-7.35
2023-02-06T04:01:19.572Z,-7.25
2023-02-06T04:02:24.838Z,-7.15
2023-02-06T04:03:28.551Z,-7.24
2023-02-06T04:04:37.325Z,-7.20
2023-02-06T04:05:41.091Z,-7.11
2023-02-06T04:06:44.752Z,-7.17
2023-02-06T04:07:48.163Z,-7.17
2023-02-06T04:08:52.313Z,-7.28
2023-02-06T04:09:55.984Z,-7.19
2023-02-06T04:10:59.226Z,-7.25
2023-02-06T04:12:02.410Z,-7.28
2023-02-06T04:13:05.334Z,-7.54
2023-02-06T04:14:08.339Z,-7.40
2023-02-06T04:15:11.481Z,-7.37
2023-02-06T04:16:14.595Z,-7.35
2023-02-06T04:17:31.510Z,-7.29
2023-02-06T04:18:41.137Z,-7.17
2023-02-06T04:19:44.567Z,-7.22
2023-02-06T04:20:47.654Z,-7.20
2023-02-06T04:21:50.843Z,-7.03
2023-02-06T04:22:54.056Z,-7.10
2023-02-06T04:23:56.992Z,-7.00
2023-02-06T04:24:59.992Z,-7.01
2023-02-06T04:26:03.142Z,-7.05
2023-02-06T04:27:07.577Z,-7.06
2023-02-06T04:28:10.796Z,-7.00
2023-02-06T04:29:13.770Z,-7.18
2023-02-06T04:30:18.593Z,-6.96
2023-02-06T04:31:24.332Z,-7.04
2023-02-06T04:32:27.528Z,-7.25
2023-02-06T04:33:30.618Z,-7.19
2023-02-06T04:34:35.900Z,-7.45
2023-02-06T04:35:39.040Z,-7.22
2023-02-06T04:36:42.185Z,-7.18
2023-02-06T04:37:45.346Z,-7.42
2023-02-06T04:38:48.604Z,-7.49
2023-02-06T04:39:51.583Z,-7.43
2023-02-06T04:40:54.676Z,-7.31
2023-02-06T04:41:57.718Z,-7.27
2023-02-06T04:43:01.025Z,-7.45
2023-02-06T04:44:04.113Z,-7.35
2023-02-06T04:45:08.033Z,-7.12
2023-02-06T04:46:11.079Z,-7.25
2023-02-06T04:47:14.460Z,-7.25
2023-02-06T04:48:17.756Z,-7.22
2023-02-06T04:49:21.112Z,-7.26
2023-02-06T04:50:24.900Z,-7.25
2023-02-06T04:51:27.955Z,-7.23
2023-02-06T04:52:30.973Z,-7.19
2023-02-06T04:53:34.529Z,-7.38
2023-02-06T04:54:37.633Z,-7.39
2023-02-06T04:55:40.787Z,-7.50
2023-02-06T04:56:45.337Z,-7.51
2023-02-06T04:57:48.649Z,-7.48
2023-02-06T04:58:52.230Z,-7.40
2023-02-06T04:59:56.041Z,-7.44
2023-02-06T05:00:59.040Z,-7.47
2023-02-06T05:02:02.383Z,-7.28
2023-02-06T05:03:05.422Z,-7.48
2023-02-06T05:04:08.575Z,-7.57
2023-02-06T05:05:11.800Z,-7.40
2023-02-06T05:06:15.168Z,-7.45
2023-02-06T05:07:18.582Z,-7.50
2023-02-06T05:08:21.968Z,-7.54
2023-02-06T05:09:24.959Z,-7.56
2023-02-06T05:10:28.188Z,-7.44
2023-02-06T05:11:31.265Z,-7.32
2023-02-06T05:12:34.336Z,-7.46
2023-02-06T05:13:37.428Z,-7.51
2023-02-06T05:14:40.470Z,-7.32
2023-02-06T05:15:43.503Z,-7.35
2023-02-06T05:16:47.300Z,-7.43
2023-02-06T05:17:50.498Z,-7.37
2023-02-06T05:18:56.754Z,-7.35
2023-02-06T05:20:00.191Z,-7.35
2023-02-06T05:21:06.590Z,-7.35
2023-02-06T05:22:09.805Z,-7.35
2023-02-06T05:23:12.860Z,-7.44
2023-02-06T05:24:16.008Z,-7.38
2023-02-06T05:25:19.261Z,-7.44
2023-02-06T05:26:22.294Z,-7.44
2023-02-06T05:27:25.978Z,-7.42
2023-02-06T05:28:33.724Z,-7.21
2023-02-06T05:29:37.097Z,-7.39
2023-02-06T05:30:40.149Z,-7.36
2023-02-06T05:31:43.485Z,-7.19
2023-02-06T05:32:46.620Z,-7.29
2023-02-06T05:33:53.788Z,-7.19
2023-02-06T05:35:00.386Z,-7.21
2023-02-06T05:36:08.266Z,-7.16
2023-02-06T05:37:11.861Z,-7.27
2023-02-06T05:38:17.526Z,-7.27
2023-02-06T05:39:20.790Z,-7.24
2023-02-06T05:40:23.978Z,-7.30
2023-02-06T05:41:27.219Z,-7.38
2023-02-06T05:42:30.202Z,-7.22
2023-02-06T05:43:34.081Z,-7.18
2023-02-06T05:44:37.148Z,-7.42
2023-02-06T05:45:40.683Z,-7.21
2023-02-06T05:46:44.434Z,-7.42
2023-02-06T05:47:47.482Z,-7.44
2023-02-06T05:48:52.328Z,-7.38
2023-02-06T05:49:55.462Z,-7.64
2023-02-06T05:50:58.579Z,-7.65
2023-02-06T05:52:01.689Z,-7.50
2023-02-06T05:53:04.717Z,-7.52
2023-02-06T05:54:07.690Z,-7.61
2023-02-06T05:55:10.852Z,-7.58
2023-02-06T05:56:13.857Z,-7.52
2023-02-06T05:57:16.957Z,-7.42
2023-02-06T05:58:22.980Z,-7.33
2023-02-06T05:59:25.892Z,-7.34
2023-02-06T06:00:28.907Z,-7.33
2023-02-06T06:01:31.897Z,-7.25
2023-02-06T06:02:34.950Z,-7.32
2023-02-06T06:03:38.744Z,-7.38
2023-02-06T06:04:41.820Z,-7.31
2023-02-06T06:05:45.723Z,-7.21
2023-02-06T06:06:49.128Z,-7.19
2023-02-06T06:07:52.351Z,-7.09
2023-02-06T06:08:55.439Z,-7.20
2023-02-06T06:09:58.581Z,-7.25
2023-02-06T06:11:03.168Z,-7.10
2023-02-06T06:12:06.426Z,-7.12
2023-02-06T06:13:09.453Z,-7.10
2023-02-06T06:14:12.798Z,-7.11
2023-02-06T06:15:16.039Z,-7.19
2023-02-06T06:16:19.145Z,-7.12
2023-02-06T06:17:22.210Z,-6.99
2023-02-06T06:18:25.525Z,-7.00
2023-02-06T06:19:28.496Z,-7.04
2023-02-06T06:20:31.672Z,-7.00
2023-02-06T06:21:34.777Z,-7.18
2023-02-06T06:22:37.922Z,-7.08
2023-02-06T06:23:41.023Z,-6.98
2023-02-06T06:24:44.198Z,-7.05
2023-02-06T06:25:48.269Z,-6.98
2023-02-06T06:26:51.590Z,-7.04
2023-02-06T06:27:54.617Z,-7.06
2023-02-06T06:28:58.059Z,-7.06
2023-02-06T06:30:01.244Z,-7.05
2023-02-06T06:31:07.372Z,-7.09
2023-02-06T06:32:10.399Z,-7.07
2023-02-06T06:33:15.723Z,-6.93
2023-02-06T06:34:18.974Z,-6.79
2023-02-06T06:35:22.206Z,-6.92
2023-02-06T06:36:25.258Z,-6.90
2023-02-06T06:37:28.310Z,-6.92
2023-02-06T06:38:31.306Z,-6.93
2023-02-06T06:39:34.209Z,-6.75
2023-02-06T06:40:37.399Z,-6.76
2023-02-06T06:41:40.495Z,-6.88
2023-02-06T06:42:43.429Z,-6.88
2023-02-06T06:43:46.438Z,-6.81
2023-02-06T06:44:49.462Z,-6.94
2023-02-06T06:45:52.802Z,-6.74
2023-02-06T06:46:55.903Z,-6.91
2023-02-06T06:47:58.920Z,-6.70
2023-02-06T06:49:01.894Z,-6.78
2023-02-06T06:50:06.332Z,-6.84
2023-02-06T06:51:09.561Z,-6.73
2023-02-06T06:52:24.022Z,-6.78
2023-02-06T06:53:27.787Z,-6.55
2023-02-06T06:54:30.800Z,-6.61
2023-02-06T06:55:34.282Z,-6.62
2023-02-06T06:56:37.625Z,-6.68
2023-02-06T06:57:40.495Z,-6.62
2023-02-06T06:58:45.172Z,-6.49
2023-02-06T06:59:48.734Z,-6.45
2023-02-06T07:00:54.082Z,-6.48
2023-02-06T07:01:57.117Z,-6.55
2023-02-06T07:03:00.280Z,-6.49
2023-02-06T07:04:03.522Z,-6.51
2023-02-06T07:05:07.237Z,-6.47
2023-02-06T07:06:11.737Z,-6.55
2023-02-06T07:07:14.971Z,-6.55
2023-02-06T07:08:18.394Z,-6.38
2023-02-06T07:09:21.584Z,-6.36
2023-02-06T07:10:24.850Z,-6.33
2023-02-06T07:11:27.991Z,-6.35
2023-02-06T07:12:30.870Z,-6.33
2023-02-06T07:13:33.958Z,-6.15
2023-02-06T07:14:37.054Z,-6.02
2023-02-06T07:15:41.194Z,-6.02
2023-02-06T07:16:47.410Z,-6.06
2023-02-06T07:17:50.799Z,-5.93
2023-02-06T07:18:53.982Z,-6.16
2023-02-06T07:19:56.976Z,-6.01
2023-02-06T07:21:00.366Z,-5.91
2023-02-06T07:22:03.396Z,-5.78
2023-02-06T07:23:07.026Z,-5.60
2023-02-06T07:24:10.158Z,-5.63
2023-02-06T07:25:13.305Z,-5.61
2023-02-06T07:26:16.361Z,-5.52
2023-02-06T07:27:19.763Z,-5.36
2023-02-06T07:28:22.979Z,-5.10
2023-02-06T07:29:26.092Z,-5.01
2023-02-06T07:30:29.648Z,-5.04
2023-02-06T07:31:32.618Z,-5.13
2023-02-06T07:32:38.915Z,-5.09
2023-02-06T07:33:42.179Z,-5.03
2023-02-06T07:34:45.277Z,-4.85
2023-02-06T07:35:48.747Z,-4.85
2023-02-06T07:36:52.127Z,-4.88
2023-02-06T07:37:57.715Z,-4.57
2023-02-06T07:39:03.377Z,-4.59
2023-02-06T07:40:07.437Z,-4.64
2023-02-06T07:41:12.631Z,-4.67
2023-02-06T07:42:16.245Z,-4.71
2023-02-06T07:43:19.358Z,-4.43
2023-02-06T07:44:22.354Z,-4.37
2023-02-06T07:45:26.398Z,-4.30
2023-02-06T07:46:29.281Z,-4.22
2023-02-06T07:47:32.276Z,-4.12
2023-02-06T07:48:36.067Z,-4.05
2023-02-06T07:49:39.448Z,-3.95
2023-02-06T07:50:42.572Z,-3.89
2023-02-06T07:51:46.495Z,-3.81
2023-02-06T07:52:49.661Z,-3.74
2023-02-06T07:53:52.854Z,-3.70
2023-02-06T07:54:55.887Z,-3.67
2023-02-06T07:55:59.031Z,-3.58
2023-02-06T07:57:02.135Z,-3.44
2023-02-06T07:58:05.192Z,-3.20
2023-02-06T07:59:08.232Z,-3.25
2023-02-06T08:00:12.071Z,-3.26
2023-02-06T08:01:15.891Z,-3.33
2023-02-06T08:02:18.838Z,-3.38
2023-02-06T08:03:22.282Z,-3.27
2023-02-06T08:04:25.481Z,-3.31
2023-02-06T08:05:28.620Z,-3.26
2023-02-06T08:06:31.738Z,-3.12
2023-02-06T08:07:35.317Z,-3.01
2023-02-06T08:08:38.817Z,-2.94
2023-02-06T08:09:42.780Z,-3.08
2023-02-06T08:10:47.083Z,-2.83
2023-02-06T08:11:50.038Z,-2.54
2023-02-06T08:12:53.081Z,-2.49
2023-02-06T08:13:56.864Z,-2.40
2023-02-06T08:14:59.916Z,-2.12
2023-02-06T08:16:11.644Z,-1.91
2023-02-06T08:17:14.977Z,-1.86
2023-02-06T08:18:18.218Z,-1.75
2023-02-06T08:19:21.361Z,-1.79
2023-02-06T08:20:24.384Z,-1.52
2023-02-06T08:21:28.658Z,-1.44
2023-02-06T08:22:32.045Z,-1.34
2023-02-06T08:23:35.099Z,-1.08
2023-02-06T08:24:38.098Z,-1.16
2023-02-06T08:25:41.137Z,-0.88
2023-02-06T08:26:44.315Z,-0.76
2023-02-06T08:27:47.688Z,-0.90
2023-02-06T08:28:52.412Z,-0.91
2023-02-06T08:29:57.428Z,-0.93
2023-02-06T08:31:00.847Z,-0.59
2023-02-06T08:32:03.973Z,-0.54
2023-02-06T08:33:07.598Z,-0.43
2023-02-06T08:34:13.717Z,-0.28
2023-02-06T08:35:16.947Z,-0.13
2023-02-06T08:36:21.570Z,-0.27
2023-02-06T08:37:24.917Z,-0.21
2023-02-06T08:38:28.089Z,0.22
2023-02-06T08:39:31.343Z,0.40
2023-02-06T08:40:34.449Z,0.38
2023-02-06T08:41:42.506Z,0.57
2023-02-06T08:42:50.492Z,0.87
2023-02-06T08:43:56.742Z,1.16
2023-02-06T08:44:59.624Z,0.91
2023-02-06T08:46:02.635Z,0.62
2023-02-06T08:47:10.502Z,0.70
2023-02-06T08:48:17.430Z,0.66
2023-02-06T08:49:22.523Z,0.82
2023-02-06T08:50:25.737Z,1.23
2023-02-06T08:51:29.248Z,1.28
2023-02-06T08:52:32.134Z,1.30
2023-02-06T08:53:35.779Z,1.08
2023-02-06T08:54:39.075Z,1.19
2023-02-06T08:55:42.202Z,1.42
2023-02-06T08:56:46.032Z,1.62
2023-02-06T08:57:49.124Z,1.94
2023-02-06T08:58:54.080Z,1.48
2023-02-06T08:59:57.265Z,0.67
2023-02-06T09:01:09.852Z,0.58
2023-02-06T09:02:13.133Z,0.96
2023-02-06T09:03:16.295Z,0.95
2023-02-06T09:04:19.838Z,0.61
2023-02-06T09:05:23.124Z,0.68
2023-02-06T09:06:27.141Z,1.02
2023-02-06T09:07:31.839Z,0.81
2023-02-06T09:08:34.945Z,0.77
2023-02-06T09:09:38.163Z,0.79
2023-02-06T09:10:41.366Z,1.03
2023-02-06T09:11:44.549Z,0.56
2023-02-06T09:12:47.727Z,1.12
2023-02-06T09:13:52.137Z,0.95
2023-02-06T09:14:55.142Z,1.40
2023-02-06T09:15:58.264Z,1.41
2023-02-06T09:17:01.536Z,1.02
2023-02-06T09:18:04.781Z,1.16
2023-02-06T09:19:08.496Z,1.43
2023-02-06T09:20:11.492Z,1.56
2023-02-06T09:21:15.952Z,1.82
2023-02-06T09:22:19.063Z,2.04
2023-02-06T09:23:22.053Z,2.27
2023-02-06T09:24:25.636Z,2.48
2023-02-06T09:25:31.578Z,2.37
2023-02-06T09:26:44.773Z,2.00
2023-02-06T09:27:57.173Z,2.15
2023-02-06T09:29:03.383Z,1.98
2023-02-06T09:30:06.812Z,1.80
2023-02-06T09:31:11.230Z,1.88
2023-02-06T09:32:14.487Z,2.59
2023-02-06T09:33:17.643Z,1.89
2023-02-06T09:34:20.557Z,2.40
2023-02-06T09:35:23.762Z,2.58
2023-02-06T09:36:27.059Z,2.78
2023-02-06T09:37:30.163Z,2.87
2023-02-06T09:38:35.933Z,2.45
2023-02-06T09:39:38.938Z,2.56
2023-02-06T09:40:42.008Z,3.01
2023-02-06T09:42:00.282Z,2.78
2023-02-06T09:43:04.383Z,2.92
2023-02-06T09:44:07.355Z,2.50
2023-02-06T09:45:23.079Z,2.52
2023-02-06T09:46:31.775Z,2.85
2023-02-06T09:47:38.250Z,2.83
2023-02-06T09:48:43.392Z,2.59
2023-02-06T09:50:06.436Z,2.42
2023-02-06T09:51:40.229Z,2.57
2023-02-06T09:52:57.618Z,2.51
2023-02-06T09:54:15.898Z,2.26
2023-02-06T09:55:43.883Z,1.98
2023-02-06T09:56:59.524Z,1.96
2023-02-06T09:58:41.050Z,2.19
2023-02-06T09:59:52.656Z,1.93
2023-02-06T10:01:17.656Z,2.38
2023-02-06T10:02:48.712Z,2.73
2023-02-06T10:04:15.961Z,2.75
2023-02-06T10:05:33.064Z,3.19
2023-02-06T10:07:00.219Z,3.34
2023-02-06T10:08:27.323Z,4.25
2023-02-06T10:09:45.126Z,4.32
2023-02-06T10:10:52.614Z,4.32
2023-02-06T10:12:13.666Z,4.52
2023-02-06T10:13:51.809Z,4.73
2023-02-06T10:15:03.567Z,4.34
2023-02-06T10:16:37.732Z,4.00
2023-02-06T10:17:54.300Z,4.41
2023-02-06T10:19:03.695Z,4.28
2023-02-06T10:20:16.205Z,4.46
2023-02-06T10:21:25.680Z,4.68
2023-02-06T10:22:49.815Z,4.89
2023-02-06T10:24:42.475Z,5.23
2023-02-06T10:26:08.164Z,5.44
2023-02-06T10:27:14.842Z,6.00
2023-02-06T10:28:21.821Z,5.68
2023-02-06T10:29:28.606Z,5.39
2023-02-06T10:31:13.688Z,5.13
2023-02-06T10:32:35.977Z,5.98
2023-02-06T10:34:00.802Z,6.49
2023-02-06T10:35:14.754Z,6.95
2023-02-06T10:36:56.633Z,6.89
2023-02-06T10:38:32.449Z,5.78
2023-02-06T10:39:57.762Z,6.64
2023-02-06T10:41:03.638Z,6.67
2023-02-06T10:42:23.014Z,6.07
2023-02-06T10:43:40.672Z,5.72
2023-02-06T10:45:01.317Z,6.53
2023-02-06T10:46:37.731Z,5.82
2023-02-06T10:48:05.191Z,5.98
2023-02-06T10:49:42.430Z,5.69
2023-02-06T10:50:55.311Z,5.34
2023-02-06T10:52:02.036Z,5.50
2023-02-06T10:53:13.109Z,5.58
2023-02-06T10:54:22.773Z,5.66
2023-02-06T10:55:37.760Z,4.85
2023-02-06T10:56:46.721Z,5.47
2023-02-06T10:57:57.669Z,5.22
2023-02-06T10:59:07.595Z,6.21
2023-02-06T11:00:39.439Z,6.20
2023-02-06T11:01:44.937Z,6.12
2023-02-06T11:03:06.875Z,6.45
2023-02-06T11:04:33.512Z,6.03
2023-02-06T11:05:37.035Z,5.84
2023-02-06T11:06:42.854Z,5.87
2023-02-06T11:07:50.630Z,6.71
2023-02-06T11:08:53.775Z,6.06
2023-02-06T11:09:57.119Z,6.73
2023-02-06T11:11:27.440Z,6.31
2023-02-06T11:12:39.596Z,6.07
2023-02-06T11:13:42.996Z,5.33
2023-02-06T11:14:46.560Z,5.54
2023-02-06T11:16:09.881Z,6.19
2023-02-06T11:17:15.861Z,7.01
2023-02-06T11:18:24.648Z,7.70
2023-02-06T11:19:35.516Z,8.06
2023-02-06T11:20:42.010Z,7.40
2023-02-06T11:21:51.356Z,7.74
2023-02-06T11:22:54.728Z,7.28
2023-02-06T11:24:13.301Z,7.56
2023-02-06T11:25:25.690Z,7.14
2023-02-06T11:26:28.817Z,6.90
2023-02-06T11:27:35.255Z,6.43
2023-02-06T11:28:50.158Z,6.74
2023-02-06T11:31:07.376Z,7.22
2023-02-06T11:32:28.594Z,6.66
2023-02-06T11:33:54.597Z,7.23
2023-02-06T11:35:01.529Z,6.88
2023-02-06T11:36:06.098Z,6.00
2023-02-06T11:37:36.251Z,6.71
2023-02-06T11:38:54.856Z,6.62
2023-02-06T11:40:19.676Z,6.36
2023-02-06T11:41:22.893Z,6.69
2023-02-06T11:42:26.184Z,6.23
2023-02-06T11:43:32.162Z,6.37
2023-02-06T11:44:39.130Z,6.50
2023-02-06T11:45:42.374Z,6.54
2023-02-06T11:46:45.312Z,6.95
2023-02-06T11:47:48.358Z,6.86
2023-02-06T11:48:55.036Z,6.25
2023-02-06T11:50:22.637Z,6.28
2023-02-06T11:51:27.168Z,5.78
2023-02-06T11:52:33.029Z,5.38
2023-02-06T11:53:37.677Z,5.43
2023-02-06T11:54:40.621Z,5.46
2023-02-06T11:55:45.155Z,5.46
2023-02-06T11:57:00.024Z,6.29
2023-02-06T11:58:14.463Z,6.79
2023-02-06T11:59:21.886Z,6.81
2023-02-06T12:00:25.081Z,7.21
2023-02-06T12:01:28.628Z,7.05
2023-02-06T12:02:35.137Z,6.43
2023-02-06T12:03:55.456Z,6.45
2023-02-06T12:05:13.717Z,7.34
2023-02-06T12:06:38.756Z,7.69
2023-02-06T12:08:02.725Z,7.44
2023-02-06T12:09:12.733Z,6.41
2023-02-06T12:10:21.051Z,6.26
2023-02-06T12:11:33.826Z,6.86
2023-02-06T12:12:42.827Z,7.22
2023-02-06T12:13:52.976Z,7.05
2023-02-06T12:15:02.949Z,6.99
2023-02-06T12:16:15.654Z,7.12
2023-02-06T12:17:40.388Z,7.54
2023-02-06T12:18:48.874Z,6.96
2023-02-06T12:20:16.642Z,6.27
2023-02-06T12:21:27.360Z,6.23
2023-02-06T12:22:35.894Z,6.37
2023-02-06T12:23:44.126Z,6.89
2023-02-06T12:24:50.031Z,6.46
2023-02-06T12:25:58.216Z,6.85
2023-02-06T12:27:17.787Z,6.93
2023-02-06T12:28:39.173Z,7.19
2023-02-06T12:29:51.821Z,6.43
2023-02-06T12:30:58.857Z,6.73
2023-02-06T12:32:15.567Z,7.43
2023-02-06T12:33:25.970Z,6.62
2023-02-06T12:34:42.850Z,6.72
2023-02-06T12:35:50.050Z,7.14
2023-02-06T12:37:14.738Z,7.05
2023-02-06T12:38:32.135Z,6.52
2023-02-06T12:39:35.575Z,6.70
2023-02-06T12:41:10.909Z,7.10
2023-02-06T12:42:52.707Z,6.75
2023-02-06T12:44:16.225Z,7.00
2023-02-06T12:45:49.236Z,7.47
2023-02-06T12:46:59.564Z,7.43
2023-02-06T12:48:26.308Z,7.26
2023-02-06T12:49:35.730Z,6.41
2023-02-06T12:50:48.872Z,7.23
2023-02-06T12:52:06.865Z,7.32
2023-02-06T12:53:24.747Z,7.71
2023-02-06T12:54:53.129Z,7.79
2023-02-06T12:56:09.785Z,6.59
2023-02-06T12:57:22.088Z,6.38
2023-02-06T12:58:33.328Z,6.61
2023-02-06T13:00:22.481Z,6.28
2023-02-06T13:01:49.267Z,6.08
2023-02-06T13:03:05.255Z,5.05
2023-02-06T13:04:23.967Z,5.01
2023-02-06T13:05:34.962Z,5.72
2023-02-06T13:06:48.719Z,6.28
2023-02-06T13:07:55.151Z,6.45
2023-02-06T13:09:07.209Z,6.62
2023-02-06T13:10:21.970Z,6.23
2023-02-06T13:11:29.044Z,5.18
2023-02-06T13:12:34.833Z,5.84
2023-02-06T13:13:41.892Z,5.49
2023-02-06T13:14:52.160Z,5.55
2023-02-06T13:15:57.053Z,5.19
2023-02-06T13:17:10.536Z,4.84
2023-02-06T13:18:37.833Z,5.47
2023-02-06T13:19:40.723Z,4.43
2023-02-06T13:21:17.047Z,4.67
2023-02-06T13:22:23.577Z,5.15
2023-02-06T13:23:26.560Z,4.94
2023-02-06T13:24:29.602Z,4.48
2023-02-06T13:25:36.741Z,4.06
2023-02-06T13:26:51.830Z,3.48
2023-02-06T13:28:11.504Z,4.12
2023-02-06T13:29:32.628Z,4.26
2023-02-06T13:30:36.105Z,4.47
2023-02-06T13:31:39.210Z,3.73
2023-02-06T13:32:46.416Z,3.65
2023-02-06T13:33:56.656Z,4.04
2023-02-06T13:35:14.670Z,4.03
2023-02-06T13:36:39.193Z,4.25
2023-02-06T13:37:48.267Z,3.79
2023-02-06T13:38:57.016Z,4.20
2023-02-06T13:40:30.846Z,4.03
2023-02-06T13:41:37.526Z,4.30
2023-02-06T13:42:53.135Z,4.61
2023-02-06T13:44:01.810Z,4.62
2023-02-06T13:45:06.654Z,4.06
2023-02-06T13:46:14.967Z,4.15
2023-02-06T13:47:42.408Z,4.11
2023-02-06T13:49:12.505Z,3.59
2023-02-06T13:50:33.990Z,4.22
2023-02-06T13:51:46.301Z,4.47
2023-02-06T13:53:19.924Z,4.25
2023-02-06T13:55:00.430Z,3.93
2023-02-06T13:56:21.307Z,3.40
2023-02-06T13:57:24.475Z,4.31
2023-02-06T13:58:49.790Z,4.56
2023-02-06T13:59:52.801Z,4.55
2023-02-06T14:00:57.743Z,4.55
2023-02-06T14:02:22.834Z,4.13
2023-02-06T14:03:34.865Z,4.03
2023-02-06T14:04:44.249Z,3.49
2023-02-06T14:06:08.884Z,3.61
2023-02-06T14:07:32.515Z,3.64
2023-02-06T14:09:03.211Z,3.50
2023-02-06T14:11:04.579Z,3.28
2023-02-06T14:12:44.782Z,3.62
2023-02-06T14:14:15.276Z,3.61
2023-02-06T14:15:20.909Z,3.58
2023-02-06T14:16:35.457Z,3.88
2023-02-06T14:18:17.007Z,3.92
2023-02-06T14:19:29.160Z,3.49
2023-02-06T14:20:50.200Z,3.36
2023-02-06T14:22:10.802Z,2.92
2023-02-06T14:23:31.151Z,3.47
2023-02-06T14:24:44.071Z,3.51
2023-02-06T14:26:14.993Z,3.41
2023-02-06T14:27:30.203Z,3.64
2023-02-06T14:28:48.253Z,3.54
2023-02-06T14:30:08.368Z,3.48
2023-02-06T14:31:20.481Z,3.48
2023-02-06T14:32:36.869Z,3.50
2023-02-06T14:34:16.550Z,3.13
2023-02-06T14:35:47.712Z,3.46
2023-02-06T14:36:50.832Z,2.95
2023-02-06T14:38:18.409Z,3.01
2023-02-06T14:39:41.131Z,2.83
2023-02-06T14:40:49.281Z,3.02
2023-02-06T14:41:54.643Z,3.13
2023-02-06T14:43:02.580Z,2.98
2023-02-06T14:44:19.698Z,2.59
2023-02-06T14:45:40.865Z,2.15
2023-02-06T14:46:45.100Z,1.96
2023-02-06T14:47:48.948Z,2.07
2023-02-06T14:48:57.292Z,1.99
2023-02-06T14:50:01.743Z,2.24
2023-02-06T14:51:06.988Z,2.33
2023-02-06T14:52:19.339Z,1.82
2023-02-06T14:53:40.185Z,2.03
2023-02-06T14:54:43.037Z,2.28
2023-02-06T14:55:47.349Z,2.12
2023-02-06T14:56:56.552Z,2.08
2023-02-06T14:57:59.977Z,2.05
2023-02-06T14:59:17.591Z,1.85
2023-02-06T15:00:21.574Z,2.01